createdAt,value
2019-04-21T00:01:20.387Z,10.01
2019-04-21T00:06:45.291Z,8.61
2019-04-21T00:11:54.169Z,6.83
2019-04-21T00:16:34.770Z,8.35
2019-04-21T00:21:36.500Z,6.66
2019-04-21T00:26:45.814Z,7.24
2019-04-21T00:31:47.127Z,7.69
2019-04-21T00:36:48.839Z,7.56
2019-04-21T00:46:58.379Z,6.27
2019-04-21T00:52:15.899Z,6.26
2019-04-21T00:57:11.518Z,7.73
2019-04-21T01:02:06.254Z,6.24
2019-04-21T01:07:12.443Z,7.65
2019-04-21T01:12:15.554Z,6.58
2019-04-21T01:17:19.134Z,6.40
2019-04-21T01:21:56.041Z,7.00
2019-04-21T01:27:11.341Z,7.25
2019-04-21T01:32:23.985Z,8.66
2019-04-21T01:37:12.822Z,7.76
2019-04-21T01:47:20.650Z,6.44
2019-04-21T01:57:23.145Z,8.75
2019-04-21T02:02:40.369Z,8.27
2019-04-21T02:07:40.693Z,7.86
2019-04-21T02:12:31.635Z,8.58
2019-04-21T02:17:40.741Z,7.40
2019-04-21T02:22:57.416Z,9.10
2019-04-21T02:33:02.915Z,9.11
2019-04-21T02:38:01.221Z,11.17
2019-04-21T02:48:08.837Z,9.04
2019-04-21T02:53:00.959Z,7.67
2019-04-21T02:58:06.000Z,8.76
2019-04-21T03:08:03.767Z,8.98
2019-04-21T03:18:18.785Z,7.92
2019-04-21T03:23:19.154Z,7.27
2019-04-21T03:53:22.688Z,7.25
2019-04-21T03:58:37.455Z,7.09
2019-04-21T04:08:51.720Z,7.52
2019-04-21T04:13:37.582Z,7.20
2019-04-21T04:28:38.418Z,8.90
2019-04-21T04:44:03.258Z,7.71
2019-04-21T04:48:49.113Z,6.59
2019-04-21T04:53:44.039Z,8.62
2019-04-21T04:59:23.373Z,8.66
2019-04-21T05:03:48.938Z,6.77
2019-04-21T05:09:07.729Z,6.67
2019-04-21T05:14:02.994Z,9.38
2019-04-21T05:19:10.522Z,7.64
2019-04-21T05:23:55.893Z,7.52
2019-04-21T05:28:53.983Z,9.45
2019-04-21T05:34:04.934Z,8.11
2019-04-21T05:38:58.609Z,10.83
2019-04-21T05:44:06.871Z,8.65
2019-04-21T05:49:05.878Z,8.71
2019-04-21T05:54:23.627Z,8.67
2019-04-21T05:59:18.388Z,9.33
2019-04-21T06:04:25.577Z,11.12
2019-04-21T06:09:19.820Z,10.27
2019-04-21T06:14:25.338Z,8.32
2019-04-21T06:19:29.361Z,10.99
2019-04-21T06:24:20.408Z,9.17
2019-04-21T06:29:29.204Z,11.72
2019-04-21T06:34:41.084Z,10.01
2019-04-21T06:44:33.647Z,12.15
2019-04-21T06:49:31.383Z,16.54
2019-04-21T06:54:36.714Z,12.35
2019-04-21T06:59:37.205Z,12.24
2019-04-21T07:04:46.440Z,15.70
2019-04-21T07:09:45.409Z,16.17
2019-04-21T07:14:42.341Z,20.68
2019-04-21T07:19:40.942Z,14.10
2019-04-21T07:24:54.064Z,17.78
2019-04-21T07:29:55.618Z,17.41
2019-04-21T07:34:51.549Z,15.84
2019-04-21T07:39:57.395Z,15.12
2019-04-21T07:44:52.294Z,15.47
2019-04-21T07:55:12.614Z,13.00
2019-04-21T08:00:16.079Z,13.42
2019-04-21T08:05:07.430Z,12.42
2019-04-21T08:10:06.118Z,13.64
2019-04-21T08:15:15.694Z,14.33
2019-04-21T08:20:14.292Z,12.00
2019-04-21T08:25:16.600Z,15.55
2019-04-21T08:30:22.636Z,16.05
2019-04-21T08:35:49.514Z,14.68
2019-04-21T08:40:29.016Z,15.69
2019-04-21T08:45:29.497Z,11.64
2019-04-21T08:50:25.563Z,8.54
2019-04-21T08:55:32.181Z,9.19
2019-04-21T09:00:33.799Z,9.11
2019-04-21T09:05:34.240Z,10.22
2019-04-21T09:10:35.657Z,12.59
2019-04-21T09:15:36.902Z,8.66
2019-04-21T09:20:40.175Z,6.57
2019-04-21T09:30:24.253Z,4.69
2019-04-21T09:35:27.098Z,7.81
2019-04-21T09:40:34.438Z,3.00
2019-04-21T09:45:32.852Z,3.84
2019-04-21T09:50:34.959Z,3.12
2019-04-21T09:55:43.998Z,3.06
2019-04-21T10:00:46.141Z,2.07
2019-04-21T10:05:39.915Z,4.40
2019-04-21T10:10:42.503Z,2.28
2019-04-21T10:15:45.972Z,4.63
2019-04-21T10:20:47.065Z,10.74
2019-04-21T10:25:50.582Z,3.59
2019-04-21T10:30:52.901Z,4.12
2019-04-21T10:35:55.138Z,2.99
2019-04-21T10:40:57.144Z,6.39
2019-04-21T10:45:59.027Z,3.00
2019-04-21T10:51:01.483Z,5.18
2019-04-21T10:56:17.524Z,4.65
2019-04-21T11:01:06.359Z,4.48
2019-04-21T11:06:10.552Z,6.30
2019-04-21T11:11:12.094Z,5.77
2019-04-21T11:16:14.969Z,5.93
2019-04-21T11:21:16.671Z,6.18
2019-04-21T11:26:18.198Z,7.93
2019-04-21T11:31:21.012Z,9.03
2019-04-21T11:36:24.992Z,9.22
2019-04-21T11:41:27.554Z,8.38
2019-04-21T11:46:30.662Z,6.38
2019-04-21T11:51:33.163Z,4.73
2019-04-21T11:56:34.808Z,8.67
2019-04-21T12:01:37.242Z,4.73
2019-04-21T12:06:43.678Z,6.17
2019-04-21T12:11:43.399Z,8.99
2019-04-21T12:16:46.767Z,7.89
2019-04-21T12:21:57.919Z,8.18
2019-04-21T12:26:50.187Z,7.87
2019-04-21T12:31:53.805Z,6.40
2019-04-21T12:36:55.008Z,6.33
2019-04-21T12:41:56.761Z,5.15
2019-04-21T12:46:59.168Z,6.83
2019-04-21T12:52:01.898Z,7.52
2019-04-21T12:57:05.330Z,5.76
2019-04-21T13:02:07.407Z,4.03
2019-04-21T13:07:08.225Z,4.87
2019-04-21T13:12:11.113Z,6.47
2019-04-21T13:17:13.407Z,5.62
2019-04-21T13:22:16.130Z,4.57
2019-04-21T13:27:18.415Z,4.22
2019-04-21T13:32:21.068Z,3.81
2019-04-21T13:37:23.766Z,4.28
2019-04-21T13:42:35.773Z,5.31
2019-04-21T13:47:28.421Z,4.08
2019-04-21T13:52:31.068Z,4.69
2019-04-21T13:57:34.601Z,2.52
2019-04-21T14:02:36.555Z,6.34
2019-04-21T14:07:38.536Z,3.57
2019-04-21T14:12:42.454Z,4.93
2019-04-21T14:17:44.716Z,3.09
2019-04-21T14:22:47.125Z,2.75
2019-04-21T14:27:51.902Z,4.09
2019-04-21T14:32:51.985Z,3.65
2019-04-21T14:37:54.451Z,3.67
2019-04-21T14:42:58.341Z,4.55
2019-04-21T14:48:00.849Z,2.65
2019-04-21T14:53:03.287Z,4.33
2019-04-21T14:58:05.142Z,2.87
2019-04-21T15:03:07.540Z,4.24
2019-04-21T15:08:09.119Z,2.88
2019-04-21T15:13:10.347Z,4.30
2019-04-21T15:18:12.977Z,2.91
2019-04-21T15:23:15.759Z,3.85
2019-04-21T15:28:19.970Z,5.90
2019-04-21T15:33:22.298Z,3.06
2019-04-21T15:38:23.034Z,5.70
2019-04-21T15:43:26.571Z,5.28
2019-04-21T15:48:28.929Z,5.74
2019-04-21T15:53:31.871Z,7.90
2019-04-21T15:58:34.612Z,9.10
2019-04-21T16:03:36.413Z,6.80
2019-04-21T16:08:37.491Z,7.08
2019-04-21T16:13:41.561Z,4.61
2019-04-21T16:18:42.679Z,4.98
2019-04-21T16:23:46.318Z,6.08
2019-04-21T16:28:47.319Z,7.66
2019-04-21T16:33:51.243Z,11.36
2019-04-21T16:38:53.611Z,5.55
2019-04-21T16:43:55.456Z,5.60
2019-04-21T16:48:57.754Z,7.36
2019-04-21T16:53:59.896Z,5.47
2019-04-21T16:59:02.930Z,4.03
2019-04-21T17:04:04.606Z,4.62
2019-04-21T17:09:08.446Z,6.21
2019-04-21T17:16:32.985Z,7.33
2019-04-21T17:19:19.012Z,6.53
2019-04-21T17:24:14.625Z,7.59
2019-04-21T17:29:16.816Z,5.93
2019-04-21T17:34:21.593Z,6.60
2019-04-21T17:39:20.815Z,5.73
2019-04-21T17:44:23.502Z,6.80
2019-04-21T17:49:25.189Z,5.67
2019-04-21T17:54:35.707Z,6.37
2019-04-21T17:59:56.609Z,7.68
2019-04-21T18:04:51.028Z,8.23
2019-04-21T18:09:58.050Z,7.80
2019-04-21T18:14:34.583Z,8.14
2019-04-21T18:19:41.780Z,8.83
2019-04-21T18:24:48.019Z,7.91
2019-04-21T18:29:44.477Z,8.47
2019-04-21T18:34:54.512Z,12.37
2019-04-21T18:39:59.617Z,11.03
2019-04-21T18:45:28.420Z,10.96
2019-04-21T18:49:53.053Z,12.08
2019-04-21T18:55:09.558Z,8.37
2019-04-21T18:59:57.683Z,12.61
2019-04-21T19:05:07.442Z,13.54
2019-04-21T19:10:27.844Z,14.54
2019-04-21T19:15:20.373Z,12.53
2019-04-21T19:20:26.129Z,12.79
2019-04-21T19:35:15.053Z,14.26
2019-04-21T19:40:39.138Z,12.83
2019-04-21T19:45:33.841Z,15.18
2019-04-21T19:50:42.434Z,12.82
2019-04-21T19:55:25.375Z,13.29
2019-04-21T20:00:30.631Z,17.49
2019-04-21T20:05:36.131Z,11.20
2019-04-21T20:10:55.098Z,14.54
2019-04-21T20:15:56.925Z,13.90
2019-04-21T20:20:41.048Z,16.46
2019-04-21T20:25:47.377Z,13.36
2019-04-21T20:31:03.883Z,13.67
2019-04-21T20:36:01.885Z,16.48
2019-04-21T20:40:59.203Z,11.87
2019-04-21T20:46:08.062Z,15.17
2019-04-21T20:51:14.449Z,16.01
2019-04-21T20:56:09.076Z,16.62
2019-04-21T21:01:25.469Z,14.81
2019-04-21T21:06:18.755Z,15.24
2019-04-21T21:11:24.249Z,14.99
2019-04-21T21:16:33.678Z,14.36
2019-04-21T21:21:23.304Z,16.71
2019-04-21T21:31:31.285Z,18.21
2019-04-21T21:41:24.443Z,15.14
2019-04-21T21:46:35.106Z,14.67
2019-04-21T21:56:24.746Z,14.69
2019-04-21T22:01:29.510Z,15.27
2019-04-21T22:06:39.877Z,13.13
2019-04-21T22:11:31.842Z,13.91
2019-04-21T22:16:43.217Z,12.09
2019-04-21T22:21:55.071Z,15.83
2019-04-21T22:26:39.060Z,11.48
2019-04-21T22:31:41.573Z,11.76
2019-04-21T22:36:52.778Z,11.89
2019-04-21T22:41:48.466Z,16.57
2019-04-21T22:46:59.917Z,14.52
2019-04-21T22:51:51.860Z,12.65
2019-04-21T22:56:59.361Z,12.07
2019-04-21T23:01:55.713Z,13.94
2019-04-21T23:07:02.155Z,12.20
2019-04-21T23:12:00.028Z,11.90
2019-04-21T23:17:24.102Z,14.70
2019-04-21T23:22:18.829Z,13.19
2019-04-21T23:27:17.123Z,12.71
2019-04-21T23:32:22.421Z,12.82
2019-04-21T23:37:12.612Z,12.96
2019-04-21T23:42:11.250Z,12.11
2019-04-21T23:47:27.317Z,12.18
2019-04-21T23:52:16.009Z,14.42
2019-04-21T23:57:27.838Z,12.33
